Smithton, Missouri
Current Conditions -  °F | °C
As of 2:42 AM on Thursday 18 Dec 2014 (Local Time) from KDMO Reporting Station
Light Snow Light Snow  
Wind Chill: 25°   Ceiling: 1800
Heat Index: 31°   Visibility: 1.2mi
Dew Point: 28°   Wind: 6mph
Humidity: 89%   Direction: 60°ENE
Pressure: 30.23"   Gusts: NA
Location:  38.68°N, 93.09°W
Report Text: KDMO 180842Z AUTO 06005KT 1 1/4SM -SN BR OVC018 M01/M02 A3023 RMK AO2 P0001 T10061022
Loading
Personal Weather Stations






























Interactive Weather Map New forecast layout! Learn more

10-Day Weather Forecast

Advertisements
Track Severe Weather on mobile